Pagrindinis puslapis
METAR-TAF:

METAR-TAF

Oro uostai :

Mesotas, Tailandas

platuma: 16-40N, ilguma: 098-33E, Aukštis: 196 m

Dabartinis oras

Ataskaita buvo paskelbta 10 valandos ir 19 minutes, ne 11:00 UTC
Vėjas 8 kt iš Vakarų/Pietvakarių
Temperatūra 28°C
Drėgmė 84%
Slėgis 1007 hPa
Matomumas 10 km arba daugiau
Išsisklaidę debesys ne aukštis 2000 ft
Su prošvaistėmis ne aukštis 8000 ft

METAR: VTPM 171100Z 24008KT 9999 SCT020 BKN080 28/25 Q1007 NOSIG

Laikas: 04:19 (21:19 UTC)

Prognozė

Ataskaita buvo paskelbta 4 valandos ir 19 minutes, ne 17:00 UTC
Prognozė galioja nuo 17 metu 18 UTC su 18 metu 18 UTC
Vėjas 5 kt iš Vakarų/Pietvakarių
Matomumas 10 km arba daugiau
Išsisklaidę debesys ne aukštis 2000 ft

TAF: VTPM 171700Z 1718/1818 24005KT 9999 SCT020

Orai ataskaitas ir orų prognozės (METAR, TAF).

turimą stotys yra geltonos ir raudonos taškus žemėlapyje.

Perkelti pele per norėdami pamatyti stoties vardą.

Tada spustelėkite, norėdami matyti oro stebėjimo ir prognozės.

Norėdami pakeisti žemėlapį: spustelėkite ant žalios mygtukų su juodo kryžiaus žemyn,; žalią mygtuką su brūkšneliu, jei norite nutolinti; arba žalių rodyklių gretimoms žemėlapius.


METAR-TAF: